sensor_id;sensor_type;location;lat;lon;timestamp;P1;durP1;ratioP1;P2;durP2;ratioP2
14121;SDS011;7139;48.114;11.442;2023-04-06T00:02:06;5.10;;;4.60;;
14121;SDS011;7139;48.114;11.442;2023-04-06T00:04:33;5.27;;;4.70;;
14121;SDS011;7139;48.114;11.442;2023-04-06T00:06:59;5.47;;;4.40;;
14121;SDS011;7139;48.114;11.442;2023-04-06T00:09:26;5.10;;;4.27;;
14121;SDS011;7139;48.114;11.442;2023-04-06T00:11:54;6.33;;;4.90;;
14121;SDS011;7139;48.114;11.442;2023-04-06T00:14:22;6.17;;;4.50;;
14121;SDS011;7139;48.114;11.442;2023-04-06T00:16:49;6.93;;;5.13;;
14121;SDS011;7139;48.114;11.442;2023-04-06T00:19:16;6.67;;;4.80;;
14121;SDS011;7139;48.114;11.442;2023-04-06T00:21:43;10.50;;;4.87;;
14121;SDS011;7139;48.114;11.442;2023-04-06T00:24:09;8.03;;;5.50;;
14121;SDS011;7139;48.114;11.442;2023-04-06T00:26:36;9.17;;;5.17;;
14121;SDS011;7139;48.114;11.442;2023-04-06T00:29:03;9.07;;;5.37;;
14121;SDS011;7139;48.114;11.442;2023-04-06T00:31:31;9.27;;;4.57;;
14121;SDS011;7139;48.114;11.442;2023-04-06T00:33:57;7.83;;;4.67;;
14121;SDS011;7139;48.114;11.442;2023-04-06T00:36:24;7.10;;;4.60;;
14121;SDS011;7139;48.114;11.442;2023-04-06T00:38:51;11.53;;;4.90;;
14121;SDS011;7139;48.114;11.442;2023-04-06T00:41:18;6.07;;;4.50;;
14121;SDS011;7139;48.114;11.442;2023-04-06T00:43:45;7.33;;;4.20;;
14121;SDS011;7139;48.114;11.442;2023-04-06T00:46:12;5.77;;;4.70;;
14121;SDS011;7139;48.114;11.442;2023-04-06T00:48:40;5.37;;;4.60;;
14121;SDS011;7139;48.114;11.442;2023-04-06T00:51:07;5.50;;;4.37;;
14121;SDS011;7139;48.114;11.442;2023-04-06T00:53:33;4.70;;;4.20;;
14121;SDS011;7139;48.114;11.442;2023-04-06T00:56:00;5.03;;;4.53;;
14121;SDS011;7139;48.114;11.442;2023-04-06T00:58:27;6.03;;;4.70;;
14121;SDS011;7139;48.114;11.442;2023-04-06T01:00:54;5.70;;;4.40;;
14121;SDS011;7139;48.114;11.442;2023-04-06T01:03:21;6.67;;;4.70;;
14121;SDS011;7139;48.114;11.442;2023-04-06T01:05:49;5.50;;;4.90;;
14121;SDS011;7139;48.114;11.442;2023-04-06T01:08:20;5.93;;;5.03;;
14121;SDS011;7139;48.114;11.442;2023-04-06T01:10:47;5.33;;;4.47;;
14121;SDS011;7139;48.114;11.442;2023-04-06T01:13:14;5.53;;;4.67;;
14121;SDS011;7139;48.114;11.442;2023-04-06T01:15:40;5.00;;;4.60;;
14121;SDS011;7139;48.114;11.442;2023-04-06T01:18:08;5.30;;;4.50;;
14121;SDS011;7139;48.114;11.442;2023-04-06T01:20:35;5.40;;;4.90;;
14121;SDS011;7139;48.114;11.442;2023-04-06T01:23:03;4.90;;;4.50;;
14121;SDS011;7139;48.114;11.442;2023-04-06T01:25:30;4.80;;;4.30;;
14121;SDS011;7139;48.114;11.442;2023-04-06T01:27:57;4.93;;;4.43;;
14121;SDS011;7139;48.114;11.442;2023-04-06T01:30:23;4.97;;;4.47;;
14121;SDS011;7139;48.114;11.442;2023-04-06T01:32:50;4.83;;;4.23;;
14121;SDS011;7139;48.114;11.442;2023-04-06T01:35:17;6.00;;;4.70;;
14121;SDS011;7139;48.114;11.442;2023-04-06T01:37:45;5.10;;;4.03;;
14121;SDS011;7139;48.114;11.442;2023-04-06T01:40:13;4.70;;;4.23;;
14121;SDS011;7139;48.114;11.442;2023-04-06T01:42:40;5.83;;;4.77;;
14121;SDS011;7139;48.114;11.442;2023-04-06T01:45:07;6.07;;;4.40;;
14121;SDS011;7139;48.114;11.442;2023-04-06T01:47:34;4.20;;;3.87;;
14121;SDS011;7139;48.114;11.442;2023-04-06T01:50:01;4.80;;;4.40;;
14121;SDS011;7139;48.114;11.442;2023-04-06T01:52:31;5.30;;;4.80;;
14121;SDS011;7139;48.114;11.442;2023-04-06T01:54:57;5.27;;;4.53;;
14121;SDS011;7139;48.114;11.442;2023-04-06T01:57:26;6.13;;;5.03;;
14121;SDS011;7139;48.114;11.442;2023-04-06T01:59:52;5.17;;;4.70;;
14121;SDS011;7139;48.114;11.442;2023-04-06T02:02:19;5.60;;;4.70;;
14121;SDS011;7139;48.114;11.442;2023-04-06T02:04:46;5.30;;;4.80;;
14121;SDS011;7139;48.114;11.442;2023-04-06T02:07:12;5.93;;;4.70;;
14121;SDS011;7139;48.114;11.442;2023-04-06T02:09:39;6.13;;;5.53;;
14121;SDS011;7139;48.114;11.442;2023-04-06T02:12:06;5.93;;;4.60;;
14121;SDS011;7139;48.114;11.442;2023-04-06T02:14:34;5.17;;;4.40;;
14121;SDS011;7139;48.114;11.442;2023-04-06T02:17:00;5.63;;;4.70;;
14121;SDS011;7139;48.114;11.442;2023-04-06T02:19:27;5.73;;;5.13;;
14121;SDS011;7139;48.114;11.442;2023-04-06T02:21:54;5.00;;;4.50;;
14121;SDS011;7139;48.114;11.442;2023-04-06T02:24:21;6.33;;;4.80;;
14121;SDS011;7139;48.114;11.442;2023-04-06T02:26:47;6.67;;;4.90;;
14121;SDS011;7139;48.114;11.442;2023-04-06T02:29:14;5.10;;;4.60;;
14121;SDS011;7139;48.114;11.442;2023-04-06T02:31:42;5.63;;;5.03;;
14121;SDS011;7139;48.114;11.442;2023-04-06T02:34:09;5.50;;;5.00;;
14121;SDS011;7139;48.114;11.442;2023-04-06T02:36:42;6.40;;;5.20;;
14121;SDS011;7139;48.114;11.442;2023-04-06T02:39:09;6.03;;;4.80;;
14121;SDS011;7139;48.114;11.442;2023-04-06T02:41:36;7.80;;;5.10;;
14121;SDS011;7139;48.114;11.442;2023-04-06T02:44:03;5.57;;;4.70;;
14121;SDS011;7139;48.114;11.442;2023-04-06T02:46:30;5.77;;;4.80;;
14121;SDS011;7139;48.114;11.442;2023-04-06T02:48:58;5.70;;;5.07;;
14121;SDS011;7139;48.114;11.442;2023-04-06T02:51:25;6.67;;;5.30;;
14121;SDS011;7139;48.114;11.442;2023-04-06T02:53:53;5.43;;;4.93;;
14121;SDS011;7139;48.114;11.442;2023-04-06T02:56:19;5.47;;;4.97;;
14121;SDS011;7139;48.114;11.442;2023-04-06T02:58:46;6.07;;;5.47;;
14121;SDS011;7139;48.114;11.442;2023-04-06T03:01:14;6.00;;;5.40;;
14121;SDS011;7139;48.114;11.442;2023-04-06T03:03:41;6.60;;;5.53;;
14121;SDS011;7139;48.114;11.442;2023-04-06T03:06:09;5.87;;;4.73;;
14121;SDS011;7139;48.114;11.442;2023-04-06T03:08:35;6.67;;;4.77;;
14121;SDS011;7139;48.114;11.442;2023-04-06T03:11:02;5.67;;;5.10;;
14121;SDS011;7139;48.114;11.442;2023-04-06T03:13:29;6.13;;;5.30;;
14121;SDS011;7139;48.114;11.442;2023-04-06T03:15:56;9.03;;;5.63;;
14121;SDS011;7139;48.114;11.442;2023-04-06T03:18:23;5.57;;;5.07;;
14121;SDS011;7139;48.114;11.442;2023-04-06T03:20:50;6.87;;;5.60;;
14121;SDS011;7139;48.114;11.442;2023-04-06T03:23:20;7.27;;;5.73;;
14121;SDS011;7139;48.114;11.442;2023-04-06T03:25:47;7.93;;;5.53;;
14121;SDS011;7139;48.114;11.442;2023-04-06T03:28:14;5.87;;;5.37;;
14121;SDS011;7139;48.114;11.442;2023-04-06T03:30:40;6.20;;;5.60;;
14121;SDS011;7139;48.114;11.442;2023-04-06T03:33:07;10.73;;;5.70;;
14121;SDS011;7139;48.114;11.442;2023-04-06T03:35:34;9.10;;;5.90;;
14121;SDS011;7139;48.114;11.442;2023-04-06T03:38:01;6.37;;;5.77;;
14121;SDS011;7139;48.114;11.442;2023-04-06T03:40:30;8.20;;;6.40;;
14121;SDS011;7139;48.114;11.442;2023-04-06T03:42:56;6.90;;;6.20;;
14121;SDS011;7139;48.114;11.442;2023-04-06T03:45:23;7.17;;;5.90;;
14121;SDS011;7139;48.114;11.442;2023-04-06T03:47:50;9.63;;;5.60;;
14121;SDS011;7139;48.114;11.442;2023-04-06T03:50:17;7.03;;;6.23;;
14121;SDS011;7139;48.114;11.442;2023-04-06T03:52:43;6.47;;;5.57;;
14121;SDS011;7139;48.114;11.442;2023-04-06T03:55:10;8.67;;;6.37;;
14121;SDS011;7139;48.114;11.442;2023-04-06T03:57:38;6.83;;;6.20;;
14121;SDS011;7139;48.114;11.442;2023-04-06T04:00:05;6.90;;;6.20;;
14121;SDS011;7139;48.114;11.442;2023-04-06T04:02:34;7.00;;;6.00;;
14121;SDS011;7139;48.114;11.442;2023-04-06T04:05:00;7.50;;;6.03;;
14121;SDS011;7139;48.114;11.442;2023-04-06T04:07:27;8.60;;;5.80;;
14121;SDS011;7139;48.114;11.442;2023-04-06T04:09:54;6.83;;;6.13;;
14121;SDS011;7139;48.114;11.442;2023-04-06T04:12:21;6.83;;;6.13;;
14121;SDS011;7139;48.114;11.442;2023-04-06T04:14:49;7.07;;;6.20;;
14121;SDS011;7139;48.114;11.442;2023-04-06T04:17:16;6.83;;;6.07;;
14121;SDS011;7139;48.114;11.442;2023-04-06T04:19:42;7.63;;;6.43;;
14121;SDS011;7139;48.114;11.442;2023-04-06T04:22:09;8.13;;;5.70;;
14121;SDS011;7139;48.114;11.442;2023-04-06T04:24:36;7.07;;;6.37;;
14121;SDS011;7139;48.114;11.442;2023-04-06T04:27:02;8.50;;;6.57;;
14121;SDS011;7139;48.114;11.442;2023-04-06T04:29:29;7.77;;;6.97;;
14121;SDS011;7139;48.114;11.442;2023-04-06T04:31:58;10.23;;;7.07;;
14121;SDS011;7139;48.114;11.442;2023-04-06T04:34:24;7.03;;;6.23;;
14121;SDS011;7139;48.114;11.442;2023-04-06T04:36:51;7.57;;;6.70;;
14121;SDS011;7139;48.114;11.442;2023-04-06T04:39:18;7.17;;;6.47;;
14121;SDS011;7139;48.114;11.442;2023-04-06T04:41:44;12.17;;;6.80;;
14121;SDS011;7139;48.114;11.442;2023-04-06T04:44:11;9.53;;;7.00;;
14121;SDS011;7139;48.114;11.442;2023-04-06T04:46:38;12.03;;;7.27;;
14121;SDS011;7139;48.114;11.442;2023-04-06T04:49:08;12.23;;;7.30;;
14121;SDS011;7139;48.114;11.442;2023-04-06T04:51:35;10.57;;;7.47;;
14121;SDS011;7139;48.114;11.442;2023-04-06T04:54:02;15.23;;;7.00;;
14121;SDS011;7139;48.114;11.442;2023-04-06T04:56:29;22.00;;;8.40;;
14121;SDS011;7139;48.114;11.442;2023-04-06T04:58:56;12.57;;;7.63;;
14121;SDS011;7139;48.114;11.442;2023-04-06T05:01:23;16.30;;;7.63;;
14121;SDS011;7139;48.114;11.442;2023-04-06T05:03:50;12.97;;;7.50;;
14121;SDS011;7139;48.114;11.442;2023-04-06T05:06:18;12.23;;;7.10;;
14121;SDS011;7139;48.114;11.442;2023-04-06T05:08:45;12.77;;;7.07;;
14121;SDS011;7139;48.114;11.442;2023-04-06T05:11:12;11.83;;;7.03;;
14121;SDS011;7139;48.114;11.442;2023-04-06T05:13:38;12.07;;;7.67;;
14121;SDS011;7139;48.114;11.442;2023-04-06T05:16:05;12.00;;;7.00;;
14121;SDS011;7139;48.114;11.442;2023-04-06T05:18:32;8.33;;;6.93;;
14121;SDS011;7139;48.114;11.442;2023-04-06T05:20:59;8.97;;;6.60;;
14121;SDS011;7139;48.114;11.442;2023-04-06T05:23:27;13.80;;;8.20;;
14121;SDS011;7139;48.114;11.442;2023-04-06T05:25:54;11.63;;;6.93;;
14121;SDS011;7139;48.114;11.442;2023-04-06T05:28:20;14.70;;;8.20;;
14121;SDS011;7139;48.114;11.442;2023-04-06T05:30:47;12.90;;;8.10;;
14121;SDS011;7139;48.114;11.442;2023-04-06T05:33:14;18.10;;;7.93;;
14121;SDS011;7139;48.114;11.442;2023-04-06T05:35:41;14.33;;;7.90;;
14121;SDS011;7139;48.114;11.442;2023-04-06T05:38:08;15.30;;;7.87;;
14121;SDS011;7139;48.114;11.442;2023-04-06T05:40:37;14.50;;;8.23;;
14121;SDS011;7139;48.114;11.442;2023-04-06T05:43:05;14.23;;;7.93;;
14121;SDS011;7139;48.114;11.442;2023-04-06T05:45:32;12.20;;;7.77;;
14121;SDS011;7139;48.114;11.442;2023-04-06T05:48:00;16.53;;;8.50;;
14121;SDS011;7139;48.114;11.442;2023-04-06T05:50:27;11.30;;;7.97;;
14121;SDS011;7139;48.114;11.442;2023-04-06T05:52:53;14.63;;;8.30;;
14121;SDS011;7139;48.114;11.442;2023-04-06T05:55:20;19.80;;;8.17;;
14121;SDS011;7139;48.114;11.442;2023-04-06T05:57:48;21.03;;;8.90;;
14121;SDS011;7139;48.114;11.442;2023-04-06T06:00:15;20.00;;;8.83;;
14121;SDS011;7139;48.114;11.442;2023-04-06T06:02:42;17.83;;;8.97;;
14121;SDS011;7139;48.114;11.442;2023-04-06T06:05:09;26.07;;;9.77;;
14121;SDS011;7139;48.114;11.442;2023-04-06T06:07:35;23.37;;;9.50;;
14121;SDS011;7139;48.114;11.442;2023-04-06T06:10:02;22.10;;;9.57;;
14121;SDS011;7139;48.114;11.442;2023-04-06T06:12:29;18.30;;;8.77;;
14121;SDS011;7139;48.114;11.442;2023-04-06T06:14:57;18.53;;;8.63;;
14121;SDS011;7139;48.114;11.442;2023-04-06T06:17:25;25.63;;;9.40;;
14121;SDS011;7139;48.114;11.442;2023-04-06T06:19:52;25.30;;;8.93;;
14121;SDS011;7139;48.114;11.442;2023-04-06T06:22:19;18.17;;;8.43;;
14121;SDS011;7139;48.114;11.442;2023-04-06T06:24:45;12.60;;;7.73;;
14121;SDS011;7139;48.114;11.442;2023-04-06T06:27:12;13.17;;;7.97;;
14121;SDS011;7139;48.114;11.442;2023-04-06T06:29:39;13.00;;;7.17;;
14121;SDS011;7139;48.114;11.442;2023-04-06T06:32:07;9.43;;;7.00;;
14121;SDS011;7139;48.114;11.442;2023-04-06T06:34:34;13.93;;;6.90;;
14121;SDS011;7139;48.114;11.442;2023-04-06T06:37:01;11.30;;;6.67;;
14121;SDS011;7139;48.114;11.442;2023-04-06T06:39:28;13.50;;;7.17;;
14121;SDS011;7139;48.114;11.442;2023-04-06T06:41:54;9.73;;;6.83;;
14121;SDS011;7139;48.114;11.442;2023-04-06T06:44:21;8.90;;;6.73;;
14121;SDS011;7139;48.114;11.442;2023-04-06T06:46:48;14.23;;;6.93;;
14121;SDS011;7139;48.114;11.442;2023-04-06T06:49:16;15.07;;;6.67;;
14121;SDS011;7139;48.114;11.442;2023-04-06T06:51:43;10.40;;;6.67;;
14121;SDS011;7139;48.114;11.442;2023-04-06T06:54:10;12.33;;;7.00;;
14121;SDS011;7139;48.114;11.442;2023-04-06T06:56:38;10.67;;;6.67;;
14121;SDS011;7139;48.114;11.442;2023-04-06T06:59:04;11.20;;;6.40;;
14121;SDS011;7139;48.114;11.442;2023-04-06T07:01:32;13.20;;;6.93;;
14121;SDS011;7139;48.114;11.442;2023-04-06T07:03:59;9.57;;;6.10;;
14121;SDS011;7139;48.114;11.442;2023-04-06T07:06:27;9.60;;;6.37;;
14121;SDS011;7139;48.114;11.442;2023-04-06T07:08:54;10.87;;;6.30;;
14121;SDS011;7139;48.114;11.442;2023-04-06T07:11:21;10.07;;;6.30;;
14121;SDS011;7139;48.114;11.442;2023-04-06T07:13:47;9.50;;;6.57;;
14121;SDS011;7139;48.114;11.442;2023-04-06T07:16:14;11.50;;;6.07;;
14121;SDS011;7139;48.114;11.442;2023-04-06T07:18:41;9.93;;;6.07;;
14121;SDS011;7139;48.114;11.442;2023-04-06T07:21:08;8.37;;;6.00;;
14121;SDS011;7139;48.114;11.442;2023-04-06T07:23:36;9.40;;;6.40;;
14121;SDS011;7139;48.114;11.442;2023-04-06T07:26:03;8.47;;;6.40;;
14121;SDS011;7139;48.114;11.442;2023-04-06T07:28:29;9.13;;;6.30;;
14121;SDS011;7139;48.114;11.442;2023-04-06T07:30:56;7.40;;;6.03;;
14121;SDS011;7139;48.114;11.442;2023-04-06T07:33:23;6.80;;;6.07;;
14121;SDS011;7139;48.114;11.442;2023-04-06T07:35:52;9.63;;;6.13;;
14121;SDS011;7139;48.114;11.442;2023-04-06T07:38:19;8.83;;;6.00;;
14121;SDS011;7139;48.114;11.442;2023-04-06T07:40:47;9.00;;;5.83;;
14121;SDS011;7139;48.114;11.442;2023-04-06T07:43:14;6.13;;;5.53;;
14121;SDS011;7139;48.114;11.442;2023-04-06T07:45:41;10.57;;;6.10;;
14121;SDS011;7139;48.114;11.442;2023-04-06T07:48:08;7.07;;;5.97;;
14121;SDS011;7139;48.114;11.442;2023-04-06T07:50:35;7.97;;;6.20;;
14121;SDS011;7139;48.114;11.442;2023-04-06T07:53:01;7.70;;;6.03;;
14121;SDS011;7139;48.114;11.442;2023-04-06T07:55:28;7.73;;;6.63;;
14121;SDS011;7139;48.114;11.442;2023-04-06T07:57:56;7.40;;;5.90;;
14121;SDS011;7139;48.114;11.442;2023-04-06T08:00:23;9.50;;;6.57;;
14121;SDS011;7139;48.114;11.442;2023-04-06T08:02:50;7.67;;;6.10;;
14121;SDS011;7139;48.114;11.442;2023-04-06T08:05:17;6.90;;;6.20;;
14121;SDS011;7139;48.114;11.442;2023-04-06T08:07:43;10.03;;;6.90;;
14121;SDS011;7139;48.114;11.442;2023-04-06T08:10:10;9.43;;;6.70;;
14121;SDS011;7139;48.114;11.442;2023-04-06T08:12:37;9.97;;;7.07;;
14121;SDS011;7139;48.114;11.442;2023-04-06T08:15:06;8.07;;;7.23;;
14121;SDS011;7139;48.114;11.442;2023-04-06T08:17:33;8.70;;;7.13;;
14121;SDS011;7139;48.114;11.442;2023-04-06T08:20:00;8.97;;;7.43;;
14121;SDS011;7139;48.114;11.442;2023-04-06T08:22:28;8.30;;;6.93;;
14121;SDS011;7139;48.114;11.442;2023-04-06T08:24:55;12.00;;;7.70;;
14121;SDS011;7139;48.114;11.442;2023-04-06T08:27:21;11.87;;;7.17;;
14121;SDS011;7139;48.114;11.442;2023-04-06T08:29:48;9.43;;;8.10;;
14121;SDS011;7139;48.114;11.442;2023-04-06T08:32:17;8.87;;;6.73;;
14121;SDS011;7139;48.114;11.442;2023-04-06T08:34:43;7.90;;;7.10;;
14121;SDS011;7139;48.114;11.442;2023-04-06T08:37:10;9.90;;;6.83;;
14121;SDS011;7139;48.114;11.442;2023-04-06T08:39:37;7.80;;;7.03;;
14121;SDS011;7139;48.114;11.442;2023-04-06T08:42:04;7.73;;;6.40;;
14121;SDS011;7139;48.114;11.442;2023-04-06T08:44:36;8.53;;;7.33;;
14121;SDS011;7139;48.114;11.442;2023-04-06T08:47:04;7.70;;;6.57;;
14121;SDS011;7139;48.114;11.442;2023-04-06T08:49:32;7.87;;;6.67;;
14121;SDS011;7139;48.114;11.442;2023-04-06T08:52:00;7.57;;;6.40;;
14121;SDS011;7139;48.114;11.442;2023-04-06T08:54:27;7.63;;;6.83;;
14121;SDS011;7139;48.114;11.442;2023-04-06T08:56:54;8.33;;;6.73;;
14121;SDS011;7139;48.114;11.442;2023-04-06T08:59:22;8.27;;;7.23;;
14121;SDS011;7139;48.114;11.442;2023-04-06T09:01:50;7.73;;;6.63;;
14121;SDS011;7139;48.114;11.442;2023-04-06T09:04:18;8.13;;;7.33;;
14121;SDS011;7139;48.114;11.442;2023-04-06T09:06:46;8.83;;;7.10;;
14121;SDS011;7139;48.114;11.442;2023-04-06T09:09:14;10.47;;;7.00;;
14121;SDS011;7139;48.114;11.442;2023-04-06T09:11:42;9.63;;;7.40;;
14121;SDS011;7139;48.114;11.442;2023-04-06T09:14:13;8.17;;;6.97;;
14121;SDS011;7139;48.114;11.442;2023-04-06T09:16:41;7.70;;;6.90;;
14121;SDS011;7139;48.114;11.442;2023-04-06T09:19:10;8.03;;;7.00;;
14121;SDS011;7139;48.114;11.442;2023-04-06T09:21:37;8.37;;;7.13;;
14121;SDS011;7139;48.114;11.442;2023-04-06T09:24:09;8.10;;;7.27;;
14121;SDS011;7139;48.114;11.442;2023-04-06T09:26:44;8.07;;;6.90;;
14121;SDS011;7139;48.114;11.442;2023-04-06T09:29:21;9.27;;;7.53;;
14121;SDS011;7139;48.114;11.442;2023-04-06T09:31:51;7.60;;;6.67;;
14121;SDS011;7139;48.114;11.442;2023-04-06T09:34:21;8.27;;;7.23;;
14121;SDS011;7139;48.114;11.442;2023-04-06T09:36:48;7.97;;;7.20;;
14121;SDS011;7139;48.114;11.442;2023-04-06T09:39:19;8.60;;;7.43;;
14121;SDS011;7139;48.114;11.442;2023-04-06T09:41:49;8.27;;;6.87;;
14121;SDS011;7139;48.114;11.442;2023-04-06T09:44:17;7.70;;;6.90;;
14121;SDS011;7139;48.114;11.442;2023-04-06T09:46:44;25.63;;;9.63;;
14121;SDS011;7139;48.114;11.442;2023-04-06T09:49:12;13.67;;;7.77;;
14121;SDS011;7139;48.114;11.442;2023-04-06T09:51:40;8.17;;;7.30;;
14121;SDS011;7139;48.114;11.442;2023-04-06T09:54:08;7.30;;;6.60;;
14121;SDS011;7139;48.114;11.442;2023-04-06T09:56:39;8.93;;;8.03;;
14121;SDS011;7139;48.114;11.442;2023-04-06T09:59:12;9.67;;;7.23;;
14121;SDS011;7139;48.114;11.442;2023-04-06T10:01:44;8.50;;;7.70;;
14121;SDS011;7139;48.114;11.442;2023-04-06T10:04:19;10.83;;;8.67;;
14121;SDS011;7139;48.114;11.442;2023-04-06T10:06:51;8.53;;;7.73;;
14121;SDS011;7139;48.114;11.442;2023-04-06T10:09:18;9.30;;;8.20;;
14121;SDS011;7139;48.114;11.442;2023-04-06T10:11:50;9.40;;;8.50;;
14121;SDS011;7139;48.114;11.442;2023-04-06T10:14:17;8.53;;;7.73;;
14121;SDS011;7139;48.114;11.442;2023-04-06T10:16:44;8.83;;;7.93;;
14121;SDS011;7139;48.114;11.442;2023-04-06T10:19:13;8.83;;;7.90;;
14121;SDS011;7139;48.114;11.442;2023-04-06T10:21:44;8.27;;;7.57;;
14121;SDS011;7139;48.114;11.442;2023-04-06T10:24:12;8.90;;;7.97;;
14121;SDS011;7139;48.114;11.442;2023-04-06T10:26:39;9.10;;;7.87;;
14121;SDS011;7139;48.114;11.442;2023-04-06T10:29:07;8.30;;;7.50;;
14121;SDS011;7139;48.114;11.442;2023-04-06T10:31:39;9.53;;;8.60;;
14121;SDS011;7139;48.114;11.442;2023-04-06T10:34:08;9.00;;;8.10;;
14121;SDS011;7139;48.114;11.442;2023-04-06T10:36:35;9.13;;;8.23;;
14121;SDS011;7139;48.114;11.442;2023-04-06T10:39:02;9.40;;;8.37;;
14121;SDS011;7139;48.114;11.442;2023-04-06T10:41:34;8.83;;;7.93;;
14121;SDS011;7139;48.114;11.442;2023-04-06T10:44:02;8.70;;;7.90;;
14121;SDS011;7139;48.114;11.442;2023-04-06T10:46:30;8.70;;;7.87;;
14121;SDS011;7139;48.114;11.442;2023-04-06T10:49:09;8.80;;;8.00;;
14121;SDS011;7139;48.114;11.442;2023-04-06T10:51:37;9.87;;;8.87;;
14121;SDS011;7139;48.114;11.442;2023-04-06T10:54:05;8.93;;;8.13;;
14121;SDS011;7139;48.114;11.442;2023-04-06T10:56:33;8.97;;;8.17;;
14121;SDS011;7139;48.114;11.442;2023-04-06T10:59:03;8.97;;;8.10;;
14121;SDS011;7139;48.114;11.442;2023-04-06T11:01:33;11.03;;;8.53;;
14121;SDS011;7139;48.114;11.442;2023-04-06T11:04:00;10.13;;;8.20;;
14121;SDS011;7139;48.114;11.442;2023-04-06T11:06:27;8.53;;;7.70;;
14121;SDS011;7139;48.114;11.442;2023-04-06T11:08:57;8.93;;;8.03;;
14121;SDS011;7139;48.114;11.442;2023-04-06T11:11:24;8.03;;;7.23;;
14121;SDS011;7139;48.114;11.442;2023-04-06T11:13:52;8.33;;;7.53;;
14121;SDS011;7139;48.114;11.442;2023-04-06T11:16:20;8.60;;;7.50;;
14121;SDS011;7139;48.114;11.442;2023-04-06T11:18:50;8.70;;;7.10;;
14121;SDS011;7139;48.114;11.442;2023-04-06T11:21:19;7.37;;;6.67;;
14121;SDS011;7139;48.114;11.442;2023-04-06T11:23:47;7.53;;;6.83;;
14121;SDS011;7139;48.114;11.442;2023-04-06T11:26:13;7.50;;;6.77;;
14121;SDS011;7139;48.114;11.442;2023-04-06T11:28:41;9.47;;;7.00;;
14121;SDS011;7139;48.114;11.442;2023-04-06T11:31:08;8.93;;;7.77;;
14121;SDS011;7139;48.114;11.442;2023-04-06T11:33:36;8.03;;;7.23;;
14121;SDS011;7139;48.114;11.442;2023-04-06T11:36:05;7.87;;;7.07;;
14121;SDS011;7139;48.114;11.442;2023-04-06T11:38:32;8.40;;;7.60;;
14121;SDS011;7139;48.114;11.442;2023-04-06T11:41:00;8.17;;;7.37;;
14121;SDS011;7139;48.114;11.442;2023-04-06T11:43:27;9.30;;;7.63;;
14121;SDS011;7139;48.114;11.442;2023-04-06T11:46:01;7.63;;;6.63;;
14121;SDS011;7139;48.114;11.442;2023-04-06T11:48:29;7.83;;;7.03;;
14121;SDS011;7139;48.114;11.442;2023-04-06T11:50:56;8.43;;;6.63;;
14121;SDS011;7139;48.114;11.442;2023-04-06T11:53:24;7.33;;;6.60;;
14121;SDS011;7139;48.114;11.442;2023-04-06T11:55:52;7.30;;;6.60;;
14121;SDS011;7139;48.114;11.442;2023-04-06T11:58:18;8.37;;;6.73;;
14121;SDS011;7139;48.114;11.442;2023-04-06T12:00:45;8.07;;;7.00;;
14121;SDS011;7139;48.114;11.442;2023-04-06T12:03:12;7.17;;;6.47;;
14121;SDS011;7139;48.114;11.442;2023-04-06T12:05:39;9.13;;;6.37;;
14121;SDS011;7139;48.114;11.442;2023-04-06T12:08:06;7.60;;;5.87;;
14121;SDS011;7139;48.114;11.442;2023-04-06T12:10:34;7.80;;;6.70;;
14121;SDS011;7139;48.114;11.442;2023-04-06T12:13:00;6.80;;;6.10;;
14121;SDS011;7139;48.114;11.442;2023-04-06T12:15:27;7.17;;;6.23;;
14121;SDS011;7139;48.114;11.442;2023-04-06T12:17:54;7.30;;;6.17;;
14121;SDS011;7139;48.114;11.442;2023-04-06T12:20:21;6.90;;;5.67;;
14121;SDS011;7139;48.114;11.442;2023-04-06T12:22:47;6.17;;;5.60;;
14121;SDS011;7139;48.114;11.442;2023-04-06T12:25:14;5.30;;;4.90;;
14121;SDS011;7139;48.114;11.442;2023-04-06T12:27:42;6.87;;;6.17;;
14121;SDS011;7139;48.114;11.442;2023-04-06T12:30:09;6.87;;;6.17;;
14121;SDS011;7139;48.114;11.442;2023-04-06T12:32:36;7.27;;;6.40;;
14121;SDS011;7139;48.114;11.442;2023-04-06T12:35:03;7.70;;;6.83;;
14121;SDS011;7139;48.114;11.442;2023-04-06T12:37:30;7.23;;;6.40;;
14121;SDS011;7139;48.114;11.442;2023-04-06T12:39:57;6.70;;;5.90;;
14121;SDS011;7139;48.114;11.442;2023-04-06T12:42:25;7.23;;;6.60;;
14121;SDS011;7139;48.114;11.442;2023-04-06T12:44:53;7.37;;;6.30;;
14121;SDS011;7139;48.114;11.442;2023-04-06T12:47:20;6.87;;;6.17;;
14121;SDS011;7139;48.114;11.442;2023-04-06T12:49:47;7.13;;;6.47;;
14121;SDS011;7139;48.114;11.442;2023-04-06T12:52:15;6.77;;;6.17;;
14121;SDS011;7139;48.114;11.442;2023-04-06T12:54:41;7.00;;;6.30;;
14121;SDS011;7139;48.114;11.442;2023-04-06T12:57:08;6.83;;;6.13;;
14121;SDS011;7139;48.114;11.442;2023-04-06T12:59:35;6.63;;;6.03;;
14121;SDS011;7139;48.114;11.442;2023-04-06T13:02:04;8.03;;;6.70;;
14121;SDS011;7139;48.114;11.442;2023-04-06T13:04:31;6.67;;;6.07;;
14121;SDS011;7139;48.114;11.442;2023-04-06T13:06:58;7.20;;;6.20;;
14121;SDS011;7139;48.114;11.442;2023-04-06T13:09:24;7.40;;;6.70;;
14121;SDS011;7139;48.114;11.442;2023-04-06T13:11:51;8.20;;;6.63;;
14121;SDS011;7139;48.114;11.442;2023-04-06T13:14:18;7.03;;;6.40;;
14121;SDS011;7139;48.114;11.442;2023-04-06T13:16:45;6.77;;;6.13;;
14121;SDS011;7139;48.114;11.442;2023-04-06T13:19:14;11.00;;;6.77;;
14121;SDS011;7139;48.114;11.442;2023-04-06T13:21:41;7.10;;;6.30;;
14121;SDS011;7139;48.114;11.442;2023-04-06T13:24:08;7.17;;;6.37;;
14121;SDS011;7139;48.114;11.442;2023-04-06T13:26:35;7.00;;;6.40;;
14121;SDS011;7139;48.114;11.442;2023-04-06T13:29:02;6.80;;;6.10;;
14121;SDS011;7139;48.114;11.442;2023-04-06T13:31:28;6.07;;;5.47;;
14121;SDS011;7139;48.114;11.442;2023-04-06T13:33:55;5.60;;;5.10;;
14121;SDS011;7139;48.114;11.442;2023-04-06T13:36:23;5.53;;;5.00;;
14121;SDS011;7139;48.114;11.442;2023-04-06T13:38:51;5.90;;;5.33;;
14121;SDS011;7139;48.114;11.442;2023-04-06T13:41:20;5.33;;;4.83;;
14121;SDS011;7139;48.114;11.442;2023-04-06T13:43:48;5.53;;;5.03;;
14121;SDS011;7139;48.114;11.442;2023-04-06T13:46:15;5.90;;;4.90;;
14121;SDS011;7139;48.114;11.442;2023-04-06T13:48:42;5.77;;;5.23;;
14121;SDS011;7139;48.114;11.442;2023-04-06T13:51:09;6.83;;;5.87;;
14121;SDS011;7139;48.114;11.442;2023-04-06T13:53:38;10.90;;;6.80;;
14121;SDS011;7139;48.114;11.442;2023-04-06T13:56:05;6.20;;;5.60;;
14121;SDS011;7139;48.114;11.442;2023-04-06T13:58:33;6.73;;;6.13;;
14121;SDS011;7139;48.114;11.442;2023-04-06T14:01:04;5.57;;;5.07;;
14121;SDS011;7139;48.114;11.442;2023-04-06T14:03:32;6.93;;;5.20;;
14121;SDS011;7139;48.114;11.442;2023-04-06T14:05:58;7.60;;;5.53;;
14121;SDS011;7139;48.114;11.442;2023-04-06T14:08:25;6.00;;;5.50;;
14121;SDS011;7139;48.114;11.442;2023-04-06T14:10:53;5.97;;;5.37;;
14121;SDS011;7139;48.114;11.442;2023-04-06T14:13:21;5.87;;;5.37;;
14121;SDS011;7139;48.114;11.442;2023-04-06T14:15:52;6.20;;;5.70;;
14121;SDS011;7139;48.114;11.442;2023-04-06T14:18:20;5.83;;;5.33;;
14121;SDS011;7139;48.114;11.442;2023-04-06T14:20:53;7.53;;;6.47;;
14121;SDS011;7139;48.114;11.442;2023-04-06T14:23:20;9.97;;;5.77;;
14121;SDS011;7139;48.114;11.442;2023-04-06T14:25:47;5.97;;;5.37;;
14121;SDS011;7139;48.114;11.442;2023-04-06T14:28:15;6.50;;;4.90;;
14121;SDS011;7139;48.114;11.442;2023-04-06T14:30:42;6.07;;;5.47;;
14121;SDS011;7139;48.114;11.442;2023-04-06T14:33:09;6.53;;;5.50;;
14121;SDS011;7139;48.114;11.442;2023-04-06T14:35:37;6.10;;;4.87;;
14121;SDS011;7139;48.114;11.442;2023-04-06T14:38:04;4.90;;;4.50;;
14121;SDS011;7139;48.114;11.442;2023-04-06T14:40:33;5.13;;;4.70;;
14121;SDS011;7139;48.114;11.442;2023-04-06T14:43:02;4.97;;;4.57;;
14121;SDS011;7139;48.114;11.442;2023-04-06T14:45:32;5.30;;;4.90;;
14121;SDS011;7139;48.114;11.442;2023-04-06T14:47:59;5.80;;;5.30;;